Flugplatz Heringsdorf

Prognose für EDAH

vom 17.07. um 00:00 UTC

Am 17.07. zwischen 00:00 UTC und 00:00 UTC

Wind 7 kt aus 30°

Sichtweite 10 km oder mehr

keine signifikanten Wettererscheinungen

keine Wolken


Am 17.07. zwischen 00:00 und 00:00 UTC übergehend zu

variable Windrichtung mit 3 kt

Sichtweite 10 km oder mehr

keine signifikanten Wettererscheinungen

keine Wolken

TAF EDAH 171700Z 1718/1803 03007KT CAVOK BECMG 1718/1720 VRB03KT
Impressum